首页
METAR-TAF:

METAR-TAF

机场 :

安托法加斯塔, 智利

纬度: 23-26S, 经度: 070-26W, 海拔: 135米

当前天气观测

该预报发布于35分钟前的18:00 UTC
风速10节,风向南转西南
温度 15°C
湿度 63%
气压 1018 hPa
能见度10公里或以上
少量云层高于2000英尺

METAR: SCFA 171800Z 21010KT 9999 FEW020 15/08 Q1018 NOSIG

时间: 15:35 (18:35 UTC)

预报

该预报发布于1小时和35分钟前的17:00 UTC
预报有效从17日的 18点(UTC)到 18日的 18点(UTC)
风速12节,风向南转西南
能见度10公里或以上
少量云层高于2000英尺
成为
从 17日的 21点(UTC)到 17日的 23点(UTC)
多云层高于1700英尺
成为
从 18日的 02点(UTC)到 18日的 04点(UTC)
风速10节,风向
阴天层高于1500英尺
成为
从 18日的 06点(UTC)到 18日的 08点(UTC)
风速4节,风向
成为
从 18日的 14点(UTC)到 18日的 16点(UTC)
风速16节,风向南转西南
成为
从 18日的 16点(UTC)到 18日的 18点(UTC)
少量云层高于2500英尺

TAF: SCFA 171700Z 1718/1818 21012KT 9999 FEW020 TX16/1718Z TN13/ 1806Z BECMG 1721/1723 BKN017 BECMG 1802/1804 18010KT OVC015 BECMG 1806/1808 10004KT BECMG 1814/1816 21016KT BECMG 1816/1818 FEW025

超过4000个机场的气象观测和天气预报(METAR&TAF报告)。

可查询的气象台以黄色和红色小点在地图上表示。

将鼠标移到小点上方,可查看气象台名称。

然后点击查看天气观测和预报。

如需切换地图:点击带黑十字的绿色按钮放大地图;点击带横线的绿色按钮缩小地图;或者点击绿色箭头查看邻近地区的地图。


METAR-TAF: